Campiña-No se requiere un especial cuidado respecto a la situación meteorológica.   -   No hay avisos

Informes METAR

 

LEZL - Sevilla, Spain
Distancia de la estación: ENE 8km
Actualización: 24/10/2021 18:30
Despejado
Despejado
 Viento de N
Viento: N 15 km/h
Temperatura: 26°C
Rocío: 7°C
Humedad: 30%
Barómetro: 1020 hPa
Resumen: Despejado
Visibilidad: mayor de 10 km
2021/10/24 16:30 LEZL 241630Z 01008KT 340V040 CAVOK 26/07 Q1020 NOSIG
LEMO - Morón, Spain
Distancia de la estación: SE 43km
Actualización: 24/10/2021 18:30
Poco nuboso
Poco nuboso
 Viento de variable
Viento: variable 4 km/h
Temperatura: 26°C
Rocío: 7°C
Humedad: 30%
Barómetro: 1019 hPa
Nubes: Poco nuboso
Visibilidad: 10 km
Detalles de las nubes: Poco nuboso 1829 m
2021/10/24 16:30 LEMO 241630Z VRB02KT 9999 FEW060 26/07 Q1019 NOSIG
LEJR - Jeréz, Spain
Distancia de la estación: S 71km
Actualización: 24/10/2021 18:30
Parcialmente nuboso
Parcialmente nuboso
 Viento de S
Viento: S 9 km/h
Temperatura: 26°C
Rocío: 9°C
Humedad: 34%
Barómetro: 1020 hPa
Nubes: Parcialmente nuboso
Visibilidad: 10 km
Detalles de las nubes: Parcialmente nuboso 1890 m
2021/10/24 16:30 LEJR 241630Z 18005KT 110V240 9999 SCT062 26/09 Q1020
 
LERT - Rota, Spain
Distancia de la estación: SSO 89km
Actualización: 24/10/2021 18:30
Poco nuboso
Poco nuboso
 Viento de OSO
Viento: OSO 6 km/h
Temperatura: 24°C
Rocío: 13°C
Humedad: 50%
Barómetro: 1020 hPa
Nubes: Poco nuboso
Visibilidad: 10 km
Detalles de las nubes: Poco nuboso 1463 m
2021/10/24 16:30 LERT 241630Z 24003KT 170V290 9999 FEW048 24/13 Q1020 NOSIG
LEMG - Málaga, Spain
Distancia de la estación: ESE 157km
Actualización: 24/10/2021 18:30
Poco nuboso
Poco nuboso
 Viento de SE
Viento: SE 9 km/h
Temperatura: 21°C
Rocío: 16°C
Humedad: 73%
Barómetro: 1021 hPa
Nubes: Poco nuboso
Visibilidad: 10 km
Detalles de las nubes: Poco nuboso 1524 m
2021/10/24 16:30 LEMG 241630Z 13005KT 090V150 9999 FEW050 21/16 Q1021 NOSIG
LEBA - Córdoba, Spain
Distancia de la estación: ENE 115km
Actualización: 24/10/2021 18:30
Despejado
Despejado
 Viento de variable
Viento: variable 4 km/h
Temperatura: 26°C
Rocío: 6°C
Humedad: 28%
Barómetro: 1020 hPa
Resumen: Despejado
Visibilidad: mayor de 10 km
2021/10/24 16:30 LEBA 241630Z VRB02KT CAVOK 26/06 Q1020
 
LEGR - Granada, Spain
Distancia de la estación: E 198km
Actualización: 24/10/2021 18:30
Poco nuboso
Poco nuboso
 Viento de variable
Viento: variable 4 km/h
Temperatura: 23°C
Rocío: 5°C
Humedad: 31%
Barómetro: 1021 hPa
Nubes: Poco nuboso
Visibilidad: 10 km
Detalles de las nubes: Poco nuboso 1829 m
2021/10/24 16:30 LEGR 241630Z VRB02KT 9999 FEW060 23/05 Q1021
LEAM - Almería, Spain
Distancia de la estación: E 326km
Actualización: 24/10/2021 18:30
Poco nuboso
Poco nuboso
 Viento de S
Viento: S 9 km/h
Temperatura: 22°C
Rocío: 15°C
Humedad: 65%
Barómetro: 1021 hPa
Nubes: Poco nuboso
Visibilidad: 10 km
Detalles de las nubes: Poco nuboso 1067 m
2021/10/24 16:30 LEAM 241630Z 18005KT 150V210 9999 FEW035 22/15 Q1021
LEMD - Madrid/Barajas, Spain
Distancia de la estación: NNE 402km
Actualización: 24/10/2021 18:30
Despejado
Despejado
 Viento de SSO
Viento: SSO 9 km/h
Temperatura: 20°C
Rocío: 1°C
Humedad: 28%
Barómetro: 1022 hPa
Resumen: Despejado
Visibilidad: mayor de 10 km
2021/10/24 16:30 LEMD 241630Z 20005KT CAVOK 20/01 Q1022 NOSIG
 
LEVD - Valladolid, Spain
Distancia de la estación: N 492km
Actualización: 24/10/2021 18:30
Despejado
Despejado
 Viento de SO
Viento: SO 9 km/h
Temperatura: 17°C
Rocío: 0°C
Humedad: 32%
Barómetro: 1022 hPa
Resumen: Despejado
Visibilidad: mayor de 10 km
2021/10/24 16:30 LEVD 241630Z 22005KT 190V270 CAVOK 17/00 Q1022
LEBL - Barcelona, Spain
Distancia de la estación: NE 816km
Actualización: 24/10/2021 18:30
Despejado
Despejado
 Viento de S
Viento: S 6 km/h
Temperatura: 20°C
Rocío: 11°C
Humedad: 56%
Barómetro: 1021 hPa
Resumen: Despejado
Visibilidad: mayor de 10 km
2021/10/24 16:30 LEBL 241630Z 18003KT 150V210 CAVOK 20/11 Q1021 NOSIG
LEVC - Valencia, Spain
Distancia de la estación: ENE 535km
Actualización: 24/10/2021 18:30
Despejado
Despejado
 Viento de SE
Viento: SE 13 km/h
Temperatura: 20°C
Rocío: 13°C
Humedad: 64%
Barómetro: 1021 hPa
Resumen: Despejado
Visibilidad: mayor de 10 km
2021/10/24 16:30 LEVC 241630Z 13007KT CAVOK 20/13 Q1021 NOSIG